createdAt,value
2023-05-15T00:00:25.267Z,100458.00
2023-05-15T00:10:25.287Z,100451.00
2023-05-15T00:20:25.349Z,100447.00
2023-05-15T00:30:25.327Z,100443.00
2023-05-15T00:40:26.355Z,100445.00
2023-05-15T00:50:26.401Z,100435.00
2023-05-15T01:00:26.379Z,100429.00
2023-05-15T01:10:26.432Z,100425.00
2023-05-15T01:20:26.410Z,100421.00
2023-05-15T01:30:26.392Z,100429.00
2023-05-15T01:40:26.497Z,100425.00
2023-05-15T01:50:26.397Z,100425.00
2023-05-15T02:00:26.489Z,100425.00
2023-05-15T02:10:27.280Z,100423.00
2023-05-15T02:20:27.946Z,100431.00
2023-05-15T02:30:29.091Z,100435.00
2023-05-15T02:40:29.594Z,100443.00
2023-05-15T02:50:29.701Z,100443.00
2023-05-15T03:00:29.680Z,100447.00
2023-05-15T03:10:29.564Z,100449.00
2023-05-15T03:20:29.576Z,100449.00
2023-05-15T03:30:29.704Z,100443.00
2023-05-15T03:40:31.472Z,100445.00
2023-05-15T03:50:33.287Z,100451.00
2023-05-15T04:00:33.686Z,100449.00
2023-05-15T04:10:33.590Z,100451.00
2023-05-15T04:20:33.625Z,100449.00
2023-05-15T04:30:36.809Z,100453.00
2023-05-15T04:40:36.660Z,100457.00
2023-05-15T04:50:36.932Z,100457.00
2023-05-15T05:00:36.714Z,100455.00
2023-05-15T05:10:56.377Z,100457.00
2023-05-15T05:21:00.145Z,100458.00
2023-05-15T05:31:02.164Z,100460.00
2023-05-15T05:41:02.801Z,100466.00
2023-05-15T05:51:02.911Z,100468.00
2023-05-15T06:01:03.107Z,100468.00
2023-05-15T06:11:03.161Z,100472.00
2023-05-15T06:21:03.900Z,100476.00
2023-05-15T06:31:04.116Z,100478.00
2023-05-15T06:41:05.063Z,100482.00
2023-05-15T06:51:05.170Z,100484.00
2023-05-15T07:01:06.148Z,100492.00
2023-05-15T07:11:05.893Z,100502.00
2023-05-15T07:21:07.278Z,100509.00
2023-05-15T07:31:07.109Z,100504.00
2023-05-15T07:41:09.157Z,100505.00
2023-05-15T07:51:08.960Z,100504.00
2023-05-15T08:01:08.915Z,100505.00
2023-05-15T08:11:08.967Z,100498.00
2023-05-15T08:21:08.934Z,100496.00
2023-05-15T08:31:09.107Z,100502.00
2023-05-15T08:41:08.984Z,100502.00
2023-05-15T08:51:09.323Z,100505.00
2023-05-15T09:01:09.048Z,100500.00
2023-05-15T09:11:09.010Z,100504.00
2023-05-15T09:21:09.080Z,100502.00
2023-05-15T09:31:09.204Z,100490.00
2023-05-15T09:41:09.161Z,100472.00
2023-05-15T09:51:09.076Z,100458.00
2023-05-15T10:01:09.176Z,100443.00
2023-05-15T10:11:09.149Z,100435.00
2023-05-15T10:21:09.161Z,100421.00
2023-05-15T10:31:09.267Z,100408.00
2023-05-15T10:41:17.318Z,100404.00
2023-05-15T10:51:11.201Z,100390.00
2023-05-15T11:01:11.951Z,100380.00
2023-05-15T11:11:12.182Z,100368.00
2023-05-15T11:21:12.580Z,100363.00
2023-05-15T11:31:12.295Z,100353.00
2023-05-15T11:41:12.313Z,100345.00
2023-05-15T11:51:12.295Z,100333.00
2023-05-15T12:01:12.784Z,100327.00
2023-05-15T12:11:13.294Z,100321.00
2023-05-15T12:21:13.553Z,100319.00
2023-05-15T12:31:16.121Z,100317.00
2023-05-15T12:41:16.316Z,100308.00
2023-05-15T12:51:16.432Z,100311.00
2023-05-15T13:01:16.947Z,100309.00
2023-05-15T13:11:17.840Z,100308.00
2023-05-15T13:21:18.443Z,100306.00
2023-05-15T13:31:18.519Z,100304.00
2023-05-15T13:41:18.524Z,100300.00
2023-05-15T13:51:18.478Z,100298.00
2023-05-15T14:01:18.622Z,100298.00
2023-05-15T14:11:18.654Z,100296.00
2023-05-15T14:21:18.471Z,100306.00
2023-05-15T14:31:18.577Z,100309.00
2023-05-15T14:41:18.535Z,100315.00
2023-05-15T14:51:19.894Z,100319.00
2023-05-15T15:01:20.615Z,100321.00
2023-05-15T15:11:20.564Z,100327.00
2023-05-15T15:21:20.675Z,100329.00
2023-05-15T15:31:21.187Z,100333.00
2023-05-15T15:41:22.848Z,100345.00
2023-05-15T15:51:22.618Z,100351.00
2023-05-15T16:01:22.917Z,100363.00
2023-05-15T16:11:23.437Z,100372.00
2023-05-15T16:21:23.713Z,100374.00
2023-05-15T16:31:23.188Z,100380.00
2023-05-15T16:41:23.673Z,100392.00
2023-05-15T16:51:23.741Z,100392.00
2023-05-15T17:01:23.770Z,100400.00
2023-05-15T17:11:23.794Z,100406.00
2023-05-15T17:21:23.742Z,100408.00
2023-05-15T17:31:23.864Z,100411.00
2023-05-15T17:41:23.834Z,100419.00
2023-05-15T17:51:23.842Z,100427.00
2023-05-15T18:01:23.848Z,100443.00
2023-05-15T18:11:24.475Z,100447.00
2023-05-15T18:21:25.190Z,100455.00
2023-05-15T18:31:25.014Z,100468.00
2023-05-15T18:41:26.546Z,100480.00
2023-05-15T18:51:26.987Z,100498.00
2023-05-15T19:01:26.944Z,100507.00
2023-05-15T19:11:27.374Z,100519.00
2023-05-15T19:21:28.877Z,100543.00
2023-05-15T19:31:32.047Z,100559.00
2023-05-15T19:41:32.994Z,100573.00
2023-05-15T19:51:33.769Z,100585.00
2023-05-15T20:01:33.965Z,100594.00
2023-05-15T20:11:33.933Z,100604.00
2023-05-15T20:21:34.047Z,100616.00
2023-05-15T20:31:34.058Z,100622.00
2023-05-15T20:41:34.300Z,100626.00
2023-05-15T20:51:34.073Z,100622.00
2023-05-15T21:01:34.233Z,100630.00
2023-05-15T21:11:34.057Z,100636.00
2023-05-15T21:21:34.729Z,100643.00
2023-05-15T21:31:35.509Z,100643.00
2023-05-15T21:41:36.155Z,100647.00
2023-05-15T21:51:36.124Z,100649.00
2023-05-15T22:01:36.382Z,100657.00
2023-05-15T22:11:37.329Z,100659.00
2023-05-15T22:21:37.177Z,100657.00
2023-05-15T22:31:37.188Z,100661.00
2023-05-15T22:41:37.201Z,100665.00
2023-05-15T22:51:37.556Z,100671.00
2023-05-15T23:01:37.283Z,100675.00
2023-05-15T23:11:38.386Z,100675.00
2023-05-15T23:21:38.192Z,100671.00
2023-05-15T23:31:38.756Z,100677.00
2023-05-15T23:41:39.234Z,100675.00
2023-05-15T23:51:39.257Z,100681.00
